Main page
METAR-TAF:

METAR-TAF

Airports :

Campbell River Airport

Campbell River, British Columbia, Canada

latitude: 49-57N, longitude: 125-16W, elevation: 106 m

Current weather observation

The report was made 50 minutes ago, at 13:00 UTC
Wind 7 kt from the Northwest
Temperature 12°C
Humidity 76%
Pressure 1015 hPa
Visibility: 48.3 km
Few clouds at a height of 25000 ft

METAR: CYBL 211300Z 31007KT 30SM FEW250 12/08 A2997 RMK CI1 SLP152

Time: 06:50 (13:50 UTC)

Forecast

The report was made 13 hours and 10 minutes ago, at 00:40 UTC
Forecast valid from 21 at 01 UTC to 21 at 04 UTC
Wind 3 kt from variable directions
Visibility: 10 km
Few clouds at a height of 6000 ft

TAF: CYBL 210040Z 2101/2104 VRB03KT P6SM FEW060 RMK NXT FCST BY 211500Z

Weather observations and forecasts of more than 4000 airports (METAR and TAF reports).

The available stations are represented by yellow and red dots on the map.

Hover mouse over dot to see the name of the station.

Then click to see weather observations and forecasts.

To change the map : click on the green buttons with a black cross to zoom in, on the green button with a dash to zoom out, or on the green arrows for adjacent maps.


METAR-TAF: